Time;durP1;ratioP1;P1;durP2;ratioP2;P2;SDS_P1;SDS_P2;PMS_P1;PMS_P2;Temp;Humidity;BMP_temperature;BMP_pressure;BME280_temperature;BME280_humidity;BME280_pressure;Samples;Min_cycle;Max_cycle;Signal;HPM_P1;HPM_P2
2023/12/02 00:02:12;;;;;;;34.70;29.20;;;;;;;;;;85383;211;3029768;-39
2023/12/02 00:04:53;;;;;;;33.80;29.10;;;;;;;;;;85429;211;3031108;-39
2023/12/02 00:07:38;;;;;;;33.60;29.20;;;;;;;;;;85404;211;3028496;-39
2023/12/02 00:10:19;;;;;;;34.50;29.70;;;;;;;;;;85393;211;3027400;-40
2023/12/02 00:13:01;;;;;;;35.80;30.50;;;;;;;;;;85426;211;3032026;-40
2023/12/02 00:15:40;;;;;;;34.60;30.00;;;;;;;;;;85393;211;3031881;-40
2023/12/02 00:18:21;;;;;;;33.90;28.90;;;;;;;;;;85422;211;3034442;-40
2023/12/02 00:21:00;;;;;;;34.60;29.10;;;;;;;;;;85466;211;3028371;-39
2023/12/02 00:23:43;;;;;;;34.90;29.70;;;;;;;;;;85437;211;3030748;-39
2023/12/02 00:26:20;;;;;;;33.70;29.40;;;;;;;;;;85367;212;3031862;-39
2023/12/02 00:28:59;;;;;;;35.40;29.90;;;;;;;;;;85474;211;3028667;-39
2023/12/02 00:31:40;;;;;;;36.70;31.30;;;;;;;;;;85467;211;3026852;-39
2023/12/02 00:34:24;;;;;;;34.80;29.30;;;;;;;;;;85421;211;3030526;-39
2023/12/02 00:37:00;;;;;;;35.10;30.50;;;;;;;;;;85431;211;3031763;-40
2023/12/02 00:39:39;;;;;;;35.80;29.80;;;;;;;;;;85423;211;3028354;-39
2023/12/02 00:42:19;;;;;;;34.10;29.30;;;;;;;;;;85386;211;3027964;-39
2023/12/02 00:45:01;;;;;;;35.30;29.90;;;;;;;;;;85420;211;3031486;-39
2023/12/02 00:47:37;;;;;;;33.50;29.30;;;;;;;;;;85386;211;3031282;-39
2023/12/02 00:50:14;;;;;;;34.20;29.60;;;;;;;;;;85423;211;3028060;-39
2023/12/02 00:52:53;;;;;;;36.40;30.60;;;;;;;;;;85456;211;3027304;-39
2023/12/02 00:55:30;;;;;;;35.60;29.60;;;;;;;;;;85413;211;3032203;-39
2023/12/02 00:58:07;;;;;;;35.10;29.90;;;;;;;;;;85396;211;3031237;-39
2023/12/02 01:00:44;;;;;;;35.90;29.80;;;;;;;;;;85448;210;3028374;-39
2023/12/02 01:03:20;;;;;;;35.20;30.00;;;;;;;;;;85500;210;3027666;-39
2023/12/02 01:05:58;;;;;;;35.20;29.40;;;;;;;;;;85437;210;3030141;-39
2023/12/02 01:08:38;;;;;;;35.10;29.70;;;;;;;;;;85421;210;3032004;-39
2023/12/02 01:11:17;;;;;;;37.30;30.60;;;;;;;;;;85418;211;3029086;-39
2023/12/02 01:13:57;;;;;;;35.80;29.70;;;;;;;;;;85401;211;3027286;-39
2023/12/02 01:16:36;;;;;;;35.50;31.20;;;;;;;;;;85460;211;3031165;-39
2023/12/02 01:19:14;;;;;;;35.20;29.90;;;;;;;;;;85425;211;3031568;-39
2023/12/02 01:21:55;;;;;;;36.00;30.60;;;;;;;;;;85447;211;3029813;-39
2023/12/02 01:24:36;;;;;;;34.30;30.20;;;;;;;;;;85448;211;3028299;-39
2023/12/02 01:27:15;;;;;;;34.80;29.40;;;;;;;;;;85411;211;3031193;-39
2023/12/02 01:29:52;;;;;;;35.60;30.40;;;;;;;;;;85423;211;3038659;-39
2023/12/02 01:32:33;;;;;;;36.70;31.20;;;;;;;;;;85466;211;3028842;-39
2023/12/02 01:35:15;;;;;;;37.20;29.60;;;;;;;;;;85435;211;3027903;-39
2023/12/02 01:37:53;;;;;;;36.60;30.50;;;;;;;;;;85433;211;3030583;-38
2023/12/02 01:40:38;;;;;;;35.80;30.80;;;;;;;;;;85418;210;3032473;-38
2023/12/02 01:43:26;;;;;;;36.50;30.00;;;;;;;;;;85498;210;3028426;-37
2023/12/02 01:46:06;;;;;;;35.50;30.20;;;;;;;;;;85502;210;3027097;-37
2023/12/02 01:48:50;;;;;;;35.40;29.60;;;;;;;;;;85424;210;3031517;-37
2023/12/02 01:51:30;;;;;;;34.40;29.30;;;;;;;;;;85486;210;3031067;-38
2023/12/02 01:54:08;;;;;;;33.30;28.30;;;;;;;;;;85440;210;3028490;-38
2023/12/02 01:56:49;;;;;;;34.00;28.40;;;;;;;;;;85448;210;3027896;-37
2023/12/02 01:59:31;;;;;;;33.50;29.00;;;;;;;;;;85399;210;3030987;-37
2023/12/02 02:02:09;;;;;;;33.60;29.10;;;;;;;;;;85440;210;3031268;-38
2023/12/02 02:04:50;;;;;;;33.40;28.90;;;;;;;;;;85435;210;3028101;-38
2023/12/02 02:07:33;;;;;;;33.70;29.10;;;;;;;;;;85476;210;3027630;-39
2023/12/02 02:10:17;;;;;;;35.50;28.80;;;;;;;;;;85440;211;3030754;-39
2023/12/02 02:12:57;;;;;;;33.90;27.90;;;;;;;;;;85385;211;3033314;-38
2023/12/02 02:15:34;;;;;;;33.80;28.10;;;;;;;;;;85453;211;3028212;-39
2023/12/02 02:18:12;;;;;;;32.50;28.50;;;;;;;;;;85433;211;3027224;-39
2023/12/02 02:20:54;;;;;;;32.10;27.10;;;;;;;;;;85456;211;3030939;-39
2023/12/02 02:23:32;;;;;;;32.40;27.00;;;;;;;;;;85452;211;3031058;-39
2023/12/02 02:26:12;;;;;;;31.20;26.80;;;;;;;;;;85427;211;3028201;-38
2023/12/02 02:28:53;;;;;;;31.80;26.50;;;;;;;;;;85419;211;3029682;-39
2023/12/02 02:31:37;;;;;;;32.10;26.70;;;;;;;;;;85462;211;3037871;-40
2023/12/02 02:34:14;;;;;;;30.80;25.90;;;;;;;;;;85391;211;3031404;-38
2023/12/02 02:36:56;;;;;;;31.50;25.20;;;;;;;;;;85448;211;3028692;-38
2023/12/02 02:39:36;;;;;;;30.10;25.60;;;;;;;;;;85410;210;3027080;-39
2023/12/02 02:42:17;;;;;;;30.30;25.10;;;;;;;;;;85396;210;3030975;-38
2023/12/02 02:44:56;;;;;;;30.20;25.50;;;;;;;;;;85483;210;3031842;-39
2023/12/02 02:47:36;;;;;;;30.10;24.80;;;;;;;;;;85455;210;3028512;-41
2023/12/02 02:50:17;;;;;;;29.30;24.00;;;;;;;;;;85395;210;3027163;-40
2023/12/02 02:52:54;;;;;;;29.00;23.90;;;;;;;;;;85403;210;3031006;-41
2023/12/02 02:55:35;;;;;;;29.80;24.50;;;;;;;;;;85446;210;3031855;-40
2023/12/02 02:58:16;;;;;;;28.00;23.80;;;;;;;;;;85422;210;3028000;-40
2023/12/02 03:00:56;;;;;;;27.20;22.40;;;;;;;;;;85424;210;3027911;-40
2023/12/02 03:03:33;;;;;;;28.20;22.80;;;;;;;;;;85479;210;3030773;-40
2023/12/02 03:06:13;;;;;;;27.90;22.20;;;;;;;;;;85476;210;3032109;-40
2023/12/02 03:08:50;;;;;;;27.80;22.60;;;;;;;;;;85431;211;3028702;-41
2023/12/02 03:11:27;;;;;;;27.80;22.00;;;;;;;;;;85443;210;3027697;-40
2023/12/02 03:14:06;;;;;;;27.50;21.40;;;;;;;;;;85489;210;3030648;-40
2023/12/02 03:16:44;;;;;;;26.40;21.60;;;;;;;;;;85476;211;3031881;-40
2023/12/02 03:19:21;;;;;;;26.10;21.30;;;;;;;;;;85503;211;3028682;-40
2023/12/02 03:22:07;;;;;;;25.70;20.90;;;;;;;;;;85412;211;3027792;-40
2023/12/02 03:24:46;;;;;;;26.10;20.40;;;;;;;;;;85423;211;3031160;-40
2023/12/02 03:27:26;;;;;;;25.20;20.90;;;;;;;;;;85418;211;3031320;-40
2023/12/02 03:30:07;;;;;;;25.50;20.00;;;;;;;;;;85426;211;3028623;-40
2023/12/02 03:32:47;;;;;;;23.90;20.30;;;;;;;;;;85395;211;3035848;-40
2023/12/02 03:35:31;;;;;;;23.90;19.70;;;;;;;;;;85415;210;3030956;-40
2023/12/02 03:38:16;;;;;;;25.20;19.60;;;;;;;;;;85445;210;3032039;-40
2023/12/02 03:40:56;;;;;;;24.20;19.20;;;;;;;;;;85463;211;3028184;-40
2023/12/02 03:43:35;;;;;;;23.00;19.20;;;;;;;;;;85429;211;3027738;-39
2023/12/02 03:46:35;;;;;;;23.60;18.60;;;;;;;;;;85406;211;3031088;-39
2023/12/02 03:49:14;;;;;;;23.20;18.70;;;;;;;;;;85476;211;3031411;-39
2023/12/02 03:51:52;;;;;;;23.20;18.90;;;;;;;;;;85441;211;3028162;-39
2023/12/02 03:54:37;;;;;;;22.80;18.60;;;;;;;;;;85451;211;3027781;-39
2023/12/02 03:57:20;;;;;;;22.10;18.30;;;;;;;;;;85457;211;3031568;-39
2023/12/02 04:00:10;;;;;;;22.60;18.00;;;;;;;;;;85429;211;3031623;-39
2023/12/02 04:02:53;;;;;;;22.10;17.90;;;;;;;;;;85445;210;3028413;-40
2023/12/02 04:05:35;;;;;;;21.90;18.00;;;;;;;;;;85512;210;3027097;-39
2023/12/02 04:08:13;;;;;;;21.80;18.30;;;;;;;;;;85497;210;3031010;-39
2023/12/02 04:10:52;;;;;;;22.30;18.40;;;;;;;;;;85480;211;3031665;-39
2023/12/02 04:13:48;;;;;;;22.60;17.70;;;;;;;;;;85381;211;3035130;-39
2023/12/02 04:16:30;;;;;;;21.90;18.00;;;;;;;;;;85447;211;3030538;-39
2023/12/02 04:19:07;;;;;;;21.80;17.50;;;;;;;;;;85458;211;3031643;-39
2023/12/02 04:21:49;;;;;;;21.10;16.90;;;;;;;;;;85436;211;3031142;-39
2023/12/02 04:24:28;;;;;;;21.80;17.80;;;;;;;;;;85520;211;3035690;-39
2023/12/02 04:27:08;;;;;;;22.10;17.70;;;;;;;;;;85460;211;3027628;-39
2023/12/02 04:29:45;;;;;;;20.00;16.60;;;;;;;;;;85443;211;3032078;-39
2023/12/02 04:32:21;;;;;;;22.00;17.30;;;;;;;;;;85391;210;3031655;-39
2023/12/02 04:35:07;;;;;;;21.40;17.30;;;;;;;;;;85430;210;3029145;-39
2023/12/02 04:37:47;;;;;;;20.60;16.30;;;;;;;;;;85477;211;3027518;-39
2023/12/02 04:40:28;;;;;;;20.60;16.90;;;;;;;;;;85486;211;3030703;-39
2023/12/02 04:43:14;;;;;;;21.40;16.60;;;;;;;;;;85388;211;3031421;-39
2023/12/02 04:45:54;;;;;;;20.90;16.40;;;;;;;;;;85491;211;3028973;-39
2023/12/02 04:48:35;;;;;;;21.30;16.60;;;;;;;;;;85477;211;3027629;-38
2023/12/02 04:51:13;;;;;;;19.00;15.60;;;;;;;;;;85435;211;3030679;-38
2023/12/02 04:53:51;;;;;;;19.10;16.00;;;;;;;;;;85464;211;3031573;-39
2023/12/02 04:56:31;;;;;;;19.90;16.40;;;;;;;;;;85493;210;3027878;-38
2023/12/02 04:59:10;;;;;;;19.30;15.80;;;;;;;;;;85445;210;3027750;-39
2023/12/02 05:01:48;;;;;;;19.40;15.90;;;;;;;;;;85458;210;3031545;-39
2023/12/02 05:04:25;;;;;;;19.10;15.60;;;;;;;;;;85458;210;3031563;-40
2023/12/02 05:07:06;;;;;;;20.00;16.40;;;;;;;;;;85484;210;3028245;-39
2023/12/02 05:09:43;;;;;;;18.80;14.90;;;;;;;;;;85473;211;3028022;-39
2023/12/02 05:12:24;;;;;;;20.00;15.80;;;;;;;;;;85468;211;3030893;-40
2023/12/02 05:15:02;;;;;;;19.50;15.40;;;;;;;;;;85406;211;3031494;-40
2023/12/02 05:17:40;;;;;;;19.20;15.10;;;;;;;;;;85448;211;3028839;-40
2023/12/02 05:20:17;;;;;;;17.70;14.60;;;;;;;;;;85506;211;3027849;-39
2023/12/02 05:22:53;;;;;;;19.60;15.30;;;;;;;;;;85449;211;3031450;-39
2023/12/02 05:25:37;;;;;;;18.30;14.70;;;;;;;;;;85409;211;3037055;-39
2023/12/02 05:28:15;;;;;;;18.40;15.20;;;;;;;;;;85470;211;3029844;-40
2023/12/02 05:30:55;;;;;;;18.30;14.60;;;;;;;;;;85502;211;3027873;-40
2023/12/02 05:33:34;;;;;;;18.00;14.60;;;;;;;;;;85393;211;3031186;-41
2023/12/02 05:36:14;;;;;;;18.10;14.80;;;;;;;;;;85469;211;3031980;-41
2023/12/02 05:38:59;;;;;;;17.20;14.10;;;;;;;;;;85432;210;3028139;-41
2023/12/02 05:41:42;;;;;;;18.60;14.20;;;;;;;;;;85491;210;3027035;-40
2023/12/02 05:44:20;;;;;;;17.50;13.90;;;;;;;;;;85420;210;3031510;-40
2023/12/02 05:46:59;;;;;;;18.10;14.50;;;;;;;;;;85425;210;3031942;-40
2023/12/02 05:49:42;;;;;;;18.70;14.70;;;;;;;;;;85486;210;3029324;-40
2023/12/02 05:52:23;;;;;;;17.70;13.70;;;;;;;;;;85437;210;3027458;-39
2023/12/02 05:55:04;;;;;;;17.50;14.10;;;;;;;;;;85451;211;3030954;-40
2023/12/02 05:57:52;;;;;;;17.30;13.60;;;;;;;;;;85466;211;3031064;-39
2023/12/02 06:00:37;;;;;;;17.50;13.70;;;;;;;;;;85445;211;3028799;-40
2023/12/02 06:03:17;;;;;;;17.50;13.50;;;;;;;;;;85482;211;3027449;-40
2023/12/02 06:05:57;;;;;;;15.80;13.00;;;;;;;;;;85349;211;3030567;-40
2023/12/02 06:08:38;;;;;;;16.90;13.40;;;;;;;;;;85475;211;3031324;-40
2023/12/02 06:11:15;;;;;;;16.90;13.00;;;;;;;;;;85462;210;3028770;-40
2023/12/02 06:13:54;;;;;;;16.60;12.70;;;;;;;;;;85487;211;3027915;-40
2023/12/02 06:16:32;;;;;;;16.60;12.80;;;;;;;;;;85477;210;3031084;-40
2023/12/02 06:19:11;;;;;;;16.50;12.80;;;;;;;;;;85493;210;3032050;-39
2023/12/02 06:21:50;;;;;;;15.10;12.30;;;;;;;;;;85464;210;3028870;-39
2023/12/02 06:24:28;;;;;;;16.30;12.40;;;;;;;;;;85454;211;3027386;-39
2023/12/02 06:27:07;;;;;;;15.70;12.40;;;;;;;;;;85445;211;3037667;-39
2023/12/02 06:29:46;;;;;;;16.80;13.30;;;;;;;;;;85488;211;3031265;-39
2023/12/02 06:32:28;;;;;;;15.70;12.40;;;;;;;;;;85445;211;3028508;-39
2023/12/02 06:35:07;;;;;;;16.00;12.80;;;;;;;;;;85461;210;3027381;-39
2023/12/02 06:37:46;;;;;;;16.20;12.80;;;;;;;;;;85475;211;3032202;-39
2023/12/02 06:40:26;;;;;;;15.60;12.40;;;;;;;;;;85443;211;3031805;-38
2023/12/02 06:43:10;;;;;;;16.00;12.40;;;;;;;;;;85323;211;3028827;-38
2023/12/02 06:45:55;;;;;;;16.20;12.30;;;;;;;;;;85442;211;3030387;-38
2023/12/02 06:48:38;;;;;;;15.00;11.90;;;;;;;;;;85449;211;3031259;-37
2023/12/02 06:51:16;;;;;;;15.60;12.30;;;;;;;;;;85487;211;3031852;-38
2023/12/02 06:53:59;;;;;;;15.90;12.40;;;;;;;;;;85439;211;3028742;-37
2023/12/02 06:56:41;;;;;;;14.00;11.30;;;;;;;;;;85428;211;3027675;-38
2023/12/02 06:59:21;;;;;;;14.30;11.70;;;;;;;;;;85484;211;3030464;-38
2023/12/02 07:01:58;;;;;;;14.80;12.00;;;;;;;;;;85481;210;3031564;-39
2023/12/02 07:04:40;;;;;;;14.70;11.50;;;;;;;;;;85459;210;3028370;-38
2023/12/02 07:07:19;;;;;;;16.20;11.80;;;;;;;;;;85422;210;3027157;-38
2023/12/02 07:09:58;;;;;;;14.70;11.40;;;;;;;;;;85472;210;3030827;-37
2023/12/02 07:12:38;;;;;;;14.60;11.20;;;;;;;;;;85451;211;3032123;-38
2023/12/02 07:15:16;;;;;;;14.20;11.60;;;;;;;;;;85490;210;3027922;-38
2023/12/02 07:17:56;;;;;;;15.20;11.70;;;;;;;;;;85501;210;3027425;-38
2023/12/02 07:20:37;;;;;;;14.90;11.00;;;;;;;;;;85506;210;3031381;-40
2023/12/02 07:23:15;;;;;;;15.50;11.40;;;;;;;;;;85522;210;3031919;-39
2023/12/02 07:25:58;;;;;;;14.40;11.10;;;;;;;;;;85516;210;3028225;-39
2023/12/02 07:28:46;;;;;;;14.20;11.30;;;;;;;;;;85568;210;3034022;-38
2023/12/02 07:31:28;;;;;;;14.50;11.10;;;;;;;;;;85544;210;3031515;-38
2023/12/02 07:34:09;;;;;;;15.00;11.50;;;;;;;;;;85524;210;3031751;-40
2023/12/02 07:36:49;;;;;;;14.80;11.20;;;;;;;;;;85542;210;3028361;-40
2023/12/02 07:39:28;;;;;;;13.90;10.90;;;;;;;;;;85487;210;3027351;-40
2023/12/02 07:42:07;;;;;;;14.30;11.70;;;;;;;;;;85484;210;3030990;-40
2023/12/02 07:44:49;;;;;;;13.80;11.30;;;;;;;;;;85446;210;3031664;-39
2023/12/02 07:47:31;;;;;;;13.90;11.30;;;;;;;;;;85506;210;3028207;-40
2023/12/02 07:50:10;;;;;;;13.60;11.00;;;;;;;;;;85536;210;3027016;-40
2023/12/02 07:52:47;;;;;;;13.50;10.70;;;;;;;;;;85500;210;3031133;-40
2023/12/02 07:55:25;;;;;;;12.90;10.80;;;;;;;;;;85529;210;3031936;-40
2023/12/02 07:58:06;;;;;;;14.00;11.30;;;;;;;;;;85426;210;3027929;-40
2023/12/02 08:00:42;;;;;;;14.50;11.50;;;;;;;;;;85470;210;3028120;-39
2023/12/02 08:03:26;;;;;;;14.50;11.50;;;;;;;;;;85518;210;3031131;-40
2023/12/02 08:06:06;;;;;;;;;;;;;;;;;;85518;210;3031294;-39
2023/12/02 08:08:44;;;;;;;13.80;10.60;;;;;;;;;;85479;210;3028585;-38
2023/12/02 08:11:23;;;;;;;13.60;10.70;;;;;;;;;;85504;210;3027999;-39
2023/12/02 08:14:02;;;;;;;14.20;10.60;;;;;;;;;;85525;210;3031638;-38
2023/12/02 08:16:41;;;;;;;13.80;10.90;;;;;;;;;;85497;210;3031108;-39
2023/12/02 08:19:19;;;;;;;14.20;11.40;;;;;;;;;;85447;210;3028480;-38
2023/12/02 08:22:02;;;;;;;14.70;11.00;;;;;;;;;;85489;210;3029770;-38
2023/12/02 08:24:48;;;;;;;13.90;10.70;;;;;;;;;;85484;210;3030653;-38
2023/12/02 08:27:27;;;;;;;14.40;11.20;;;;;;;;;;85489;210;3031716;-39
2023/12/02 08:30:07;;;;;;;14.20;11.10;;;;;;;;;;85522;210;3031199;-38
2023/12/02 08:32:44;;;;;;;13.70;10.80;;;;;;;;;;85511;210;3027139;-39
2023/12/02 08:35:23;;;;;;;13.80;11.20;;;;;;;;;;85515;210;3031226;-38
2023/12/02 08:38:03;;;;;;;13.30;11.30;;;;;;;;;;85449;210;3031027;-39
2023/12/02 08:40:41;;;;;;;14.50;11.00;;;;;;;;;;85421;210;3028021;-38
2023/12/02 08:43:22;;;;;;;14.10;11.20;;;;;;;;;;85440;210;3028231;-39
2023/12/02 08:46:03;;;;;;;13.80;10.70;;;;;;;;;;85528;210;3032214;-40
2023/12/02 08:48:45;;;;;;;13.50;11.10;;;;;;;;;;85495;210;3031159;-39
2023/12/02 08:51:26;;;;;;;15.20;11.90;;;;;;;;;;85513;210;3028524;-39
2023/12/02 08:54:06;;;;;;;16.00;14.00;;;;;;;;;;85524;210;3027900;-38
2023/12/02 08:56:48;;;;;;;17.30;15.50;;;;;;;;;;85446;210;3031485;-38
2023/12/02 08:59:25;;;;;;;17.80;15.90;;;;;;;;;;85442;210;3031539;-37
2023/12/02 09:02:04;;;;;;;18.10;16.20;;;;;;;;;;85526;210;3028353;-38
2023/12/02 09:04:44;;;;;;;18.20;16.30;;;;;;;;;;85592;210;3027662;-39
2023/12/02 09:07:25;;;;;;;18.20;16.40;;;;;;;;;;85524;210;3030616;-38
2023/12/02 09:10:12;;;;;;;19.10;17.10;;;;;;;;;;85514;210;3031296;-38
2023/12/02 09:12:51;;;;;;;19.70;17.70;;;;;;;;;;85512;210;3027848;-39
2023/12/02 09:15:49;;;;;;;18.40;16.50;;;;;;;;;;85516;210;3027741;-40
2023/12/02 09:18:36;;;;;;;18.80;16.90;;;;;;;;;;85478;210;3030383;-39
2023/12/02 09:21:43;;;;;;;19.30;17.20;;;;;;;;;;85506;210;3031992;-38
2023/12/02 09:24:47;;;;;;;19.00;17.00;;;;;;;;;;85485;210;3028743;-39
2023/12/02 09:28:26;;;;;;;19.10;17.10;;;;;;;;;;85252;210;3027806;-39
2023/12/02 09:31:08;;;;;;;18.40;16.50;;;;;;;;;;85437;210;3038721;-41
2023/12/02 09:33:48;;;;;;;18.80;16.80;;;;;;;;;;85509;210;3032042;-40
2023/12/02 09:36:39;;;;;;;18.80;16.80;;;;;;;;;;85464;210;3028337;-40
2023/12/02 09:39:55;;;;;;;19.20;17.10;;;;;;;;;;85446;210;3028141;-40
2023/12/02 09:42:34;;;;;;;18.30;16.30;;;;;;;;;;85037;210;3030542;-38
2023/12/02 09:45:16;;;;;;;18.90;16.90;;;;;;;;;;85497;210;3031092;-38
2023/12/02 09:48:07;;;;;;;18.10;16.20;;;;;;;;;;85496;210;3028662;-39
2023/12/02 09:50:59;;;;;;;18.70;16.70;;;;;;;;;;85457;210;3027673;-38
2023/12/02 09:53:49;;;;;;;17.90;16.00;;;;;;;;;;85434;210;3030968;-38
2023/12/02 09:56:36;;;;;;;18.60;16.60;;;;;;;;;;85405;210;3031644;-39
2023/12/02 09:59:29;;;;;;;18.50;16.50;;;;;;;;;;85422;210;3029286;-39
2023/12/02 10:02:20;;;;;;;17.50;15.60;;;;;;;;;;85455;210;3032890;-38
2023/12/02 10:05:13;;;;;;;18.20;16.30;;;;;;;;;;85536;210;3031209;-38
2023/12/02 10:08:12;;;;;;;17.60;15.70;;;;;;;;;;85508;210;3032532;-39
2023/12/02 10:10:59;;;;;;;17.10;15.30;;;;;;;;;;85467;210;3028762;-39
2023/12/02 10:13:48;;;;;;;17.00;15.20;;;;;;;;;;85508;210;3027092;-39
2023/12/02 10:16:31;;;;;;;17.00;15.10;;;;;;;;;;85528;210;3030852;-40
2023/12/02 10:19:14;;;;;;;16.70;14.90;;;;;;;;;;85448;210;3032600;-39
2023/12/02 10:21:56;;;;;;;17.60;15.50;;;;;;;;;;85464;210;3028383;-39
2023/12/02 10:24:40;;;;;;;17.90;15.50;;;;;;;;;;85481;210;3028044;-39
2023/12/02 10:27:19;;;;;;;16.70;14.90;;;;;;;;;;85479;210;3030866;-38
2023/12/02 10:30:10;;;;;;;17.20;15.30;;;;;;;;;;85445;210;3032104;-39
2023/12/02 10:33:07;;;;;;;17.70;15.10;;;;;;;;;;85449;210;3029341;-38
2023/12/02 10:35:47;;;;;;;16.70;14.60;;;;;;;;;;85505;210;3028306;-39
2023/12/02 10:38:34;;;;;;;17.10;14.90;;;;;;;;;;85431;210;3031339;-39
2023/12/02 10:41:17;;;;;;;16.60;14.50;;;;;;;;;;85437;210;3031641;-38
2023/12/02 10:43:57;;;;;;;16.70;14.40;;;;;;;;;;85499;210;3028613;-39
2023/12/02 10:46:42;;;;;;;16.30;14.40;;;;;;;;;;85461;210;3027208;-39
2023/12/02 10:49:21;;;;;;;17.20;14.50;;;;;;;;;;85452;210;3030724;-38
2023/12/02 10:52:01;;;;;;;16.20;13.90;;;;;;;;;;85418;210;3032041;-39
2023/12/02 10:54:48;;;;;;;15.70;13.20;;;;;;;;;;85450;210;3028733;-41
2023/12/02 10:57:28;;;;;;;15.60;13.70;;;;;;;;;;85430;210;3027298;-39
2023/12/02 11:00:16;;;;;;;17.50;14.20;;;;;;;;;;85442;210;3031299;-38
2023/12/02 11:03:10;;;;;;;16.40;13.50;;;;;;;;;;85515;210;3031943;-38
2023/12/02 11:06:02;;;;;;;15.60;13.70;;;;;;;;;;85494;210;3028133;-38
2023/12/02 11:08:54;;;;;;;15.50;13.50;;;;;;;;;;85504;210;3027881;-38
2023/12/02 11:11:48;;;;;;;17.40;13.90;;;;;;;;;;85481;210;3030591;-38
2023/12/02 11:14:33;;;;;;;16.90;13.60;;;;;;;;;;85489;210;3031445;-39
2023/12/02 11:17:23;;;;;;;14.80;12.90;;;;;;;;;;85513;210;3029697;-38
2023/12/02 11:20:12;;;;;;;15.90;13.80;;;;;;;;;;85516;210;3027373;-39
2023/12/02 11:23:26;;;;;;;16.20;13.90;;;;;;;;;;85472;210;3031560;-39
2023/12/02 11:26:28;;;;;;;16.80;13.30;;;;;;;;;;85500;210;3031893;-40
2023/12/02 11:29:19;;;;;;;15.70;13.10;;;;;;;;;;85526;210;3029467;-38
2023/12/02 11:32:22;;;;;;;15.60;13.30;;;;;;;;;;85518;210;3027607;-39
2023/12/02 11:35:15;;;;;;;15.10;12.50;;;;;;;;;;85519;210;3030702;-38
2023/12/02 11:37:58;;;;;;;;;;;;;;;;;;85500;210;3031448;-39
2023/12/02 11:40:56;;;;;;;15.70;12.50;;;;;;;;;;85456;210;3028918;-38
2023/12/02 11:44:02;;;;;;;15.70;12.80;;;;;;;;;;85370;210;3027752;-38
2023/12/02 11:47:04;;;;;;;15.30;13.00;;;;;;;;;;85422;210;3031078;-39
2023/12/02 11:50:01;;;;;;;15.50;12.10;;;;;;;;;;85453;210;3031376;-39
2023/12/02 11:53:03;;;;;;;15.20;12.30;;;;;;;;;;85428;210;3028399;-40
2023/12/02 11:55:56;;;;;;;14.70;12.20;;;;;;;;;;85344;210;3027731;-39
2023/12/02 11:58:50;;;;;;;14.50;12.30;;;;;;;;;;85442;210;3031332;-38
2023/12/02 12:01:52;;;;;;;13.50;11.40;;;;;;;;;;85459;210;3031488;-38
2023/12/02 12:05:03;;;;;;;14.40;11.90;;;;;;;;;;85461;210;3028064;-38
2023/12/02 12:08:00;;;;;;;14.70;11.70;;;;;;;;;;85480;210;3028057;-37
2023/12/02 12:10:39;;;;;;;14.00;12.20;;;;;;;;;;85515;210;3030948;-38
2023/12/02 12:13:25;;;;;;;13.60;11.40;;;;;;;;;;85452;210;3031331;-39
2023/12/02 12:16:02;;;;;;;13.10;11.70;;;;;;;;;;85489;210;3028005;-38
2023/12/02 12:18:39;;;;;;;13.10;11.60;;;;;;;;;;85453;210;3028628;-39
2023/12/02 12:21:18;;;;;;;13.20;11.00;;;;;;;;;;85475;210;3030979;-38
2023/12/02 12:23:56;;;;;;;13.50;11.80;;;;;;;;;;85422;210;3031988;-38
2023/12/02 12:26:34;;;;;;;13.10;11.20;;;;;;;;;;85474;210;3028760;-40
2023/12/02 12:29:15;;;;;;;12.60;10.50;;;;;;;;;;85456;210;3027194;-38
2023/12/02 12:31:59;;;;;;;12.30;10.90;;;;;;;;;;85445;210;3032341;-37
2023/12/02 12:34:35;;;;;;;13.40;11.40;;;;;;;;;;85437;210;3032615;-38
2023/12/02 12:37:17;;;;;;;13.50;11.40;;;;;;;;;;85455;210;3027860;-37
2023/12/02 12:39:55;;;;;;;13.30;10.90;;;;;;;;;;85406;210;3027773;-38
2023/12/02 12:42:36;;;;;;;13.10;11.30;;;;;;;;;;85379;210;3031047;-38
2023/12/02 12:45:19;;;;;;;12.20;10.70;;;;;;;;;;85372;210;3031104;-38
2023/12/02 12:48:01;;;;;;;13.10;10.80;;;;;;;;;;85490;210;3027934;-38
2023/12/02 12:50:48;;;;;;;12.70;10.80;;;;;;;;;;85437;210;3027111;-38
2023/12/02 12:53:33;;;;;;;12.80;10.90;;;;;;;;;;85354;210;3030663;-38
2023/12/02 12:56:14;;;;;;;12.80;10.80;;;;;;;;;;85440;210;3038216;-38
2023/12/02 12:59:07;;;;;;;13.30;10.90;;;;;;;;;;85463;210;3028234;-39
2023/12/02 13:02:08;;;;;;;12.60;10.90;;;;;;;;;;85477;210;3027072;-38
2023/12/02 13:05:02;;;;;;;12.10;10.50;;;;;;;;;;85475;210;3031234;-38
2023/12/02 13:08:03;;;;;;;12.70;10.70;;;;;;;;;;85503;210;3031186;-40
2023/12/02 13:10:46;;;;;;;12.20;10.50;;;;;;;;;;85564;210;3028005;-38
2023/12/02 13:13:25;;;;;;;13.20;10.60;;;;;;;;;;85543;210;3027905;-37
2023/12/02 13:16:07;;;;;;;12.20;10.20;;;;;;;;;;85488;210;3030415;-37
2023/12/02 13:18:50;;;;;;;12.50;10.40;;;;;;;;;;85534;210;3031366;-38
2023/12/02 13:21:27;;;;;;;12.70;10.50;;;;;;;;;;85436;210;3028352;-37
2023/12/02 13:24:07;;;;;;;13.00;11.40;;;;;;;;;;85415;210;3027392;-38
2023/12/02 13:26:50;;;;;;;12.10;10.60;;;;;;;;;;85512;211;3039082;-38
2023/12/02 13:29:29;;;;;;;12.00;10.10;;;;;;;;;;85479;211;3031684;-38
2023/12/02 13:32:08;;;;;;;12.70;10.80;;;;;;;;;;85418;211;3027868;-39
2023/12/02 13:34:54;;;;;;;12.90;10.80;;;;;;;;;;85358;211;3027451;-39
2023/12/02 13:37:46;;;;;;;12.10;10.40;;;;;;;;;;85443;211;3031524;-37
2023/12/02 13:40:28;;;;;;;12.70;10.50;;;;;;;;;;85431;210;3031745;-38
2023/12/02 13:43:19;;;;;;;12.60;10.50;;;;;;;;;;85478;210;3028092;-37
2023/12/02 13:46:01;;;;;;;11.90;10.20;;;;;;;;;;85424;210;3027858;-38
2023/12/02 13:48:51;;;;;;;11.80;10.10;;;;;;;;;;85464;210;3031258;-38
2023/12/02 13:51:32;;;;;;;11.90;10.10;;;;;;;;;;85426;210;3031246;-38
2023/12/02 13:54:24;;;;;;;12.00;10.00;;;;;;;;;;85440;210;3028396;-37
2023/12/02 13:57:23;;;;;;;11.80;10.00;;;;;;;;;;85446;210;3027279;-37
2023/12/02 14:00:11;;;;;;;12.50;10.40;;;;;;;;;;85454;210;3031463;-40
2023/12/02 14:03:07;;;;;;;11.80;10.30;;;;;;;;;;85461;210;3031909;-40
2023/12/02 14:05:53;;;;;;;12.10;9.70;;;;;;;;;;85416;210;3028809;-38
2023/12/02 14:08:40;;;;;;;11.60;9.80;;;;;;;;;;85500;210;3027634;-37
2023/12/02 14:11:40;;;;;;;11.90;9.80;;;;;;;;;;85483;210;3030659;-37
2023/12/02 14:14:43;;;;;;;11.50;9.90;;;;;;;;;;85475;210;3032014;-37
2023/12/02 14:17:39;;;;;;;11.90;9.70;;;;;;;;;;85354;210;3027998;-38
2023/12/02 14:20:39;;;;;;;11.20;9.40;;;;;;;;;;85466;210;3027760;-38
2023/12/02 14:23:46;;;;;;;11.50;9.60;;;;;;;;;;85495;210;3030600;-38
2023/12/02 14:27:04;;;;;;;11.80;9.50;;;;;;;;;;85425;210;3031389;-38
2023/12/02 14:30:08;;;;;;;11.60;9.60;;;;;;;;;;85481;210;3028041;-39
2023/12/02 14:33:16;;;;;;;12.20;9.90;;;;;;;;;;85420;211;3027137;-38
2023/12/02 14:36:08;;;;;;;11.40;9.60;;;;;;;;;;85430;211;3031425;-39
2023/12/02 14:39:15;;;;;;;11.10;9.50;;;;;;;;;;85426;210;3037777;-38
2023/12/02 14:42:06;;;;;;;11.40;9.40;;;;;;;;;;85515;210;3028595;-38
2023/12/02 14:44:48;;;;;;;11.60;9.70;;;;;;;;;;85455;210;3027185;-38
2023/12/02 14:47:36;;;;;;;11.40;9.80;;;;;;;;;;85392;210;3031237;-37
2023/12/02 14:50:14;;;;;;;11.60;9.80;;;;;;;;;;85380;211;3032658;-37
2023/12/02 14:52:54;;;;;;;12.00;10.20;;;;;;;;;;85422;211;3028665;-38
2023/12/02 14:55:33;;;;;;;12.50;10.10;;;;;;;;;;85423;211;3027337;-38
2023/12/02 14:58:27;;;;;;;11.80;9.80;;;;;;;;;;85424;211;3032094;-37
2023/12/02 15:01:10;;;;;;;12.30;10.50;;;;;;;;;;85474;211;3031467;-38
2023/12/02 15:03:53;;;;;;;12.20;9.60;;;;;;;;;;85435;210;3028733;-38
2023/12/02 15:06:34;;;;;;;12.60;10.10;;;;;;;;;;85470;210;3027247;-38
2023/12/02 15:09:21;;;;;;;11.50;9.70;;;;;;;;;;85416;210;3036945;-38
2023/12/02 15:12:08;;;;;;;13.20;10.00;;;;;;;;;;85495;210;3031706;-38
2023/12/02 15:14:47;;;;;;;11.70;9.80;;;;;;;;;;85433;210;3028452;-38
2023/12/02 15:17:27;;;;;;;11.70;9.60;;;;;;;;;;85388;210;3027630;-38
2023/12/02 15:20:15;;;;;;;12.00;10.40;;;;;;;;;;85429;211;3031828;-37
2023/12/02 15:23:29;;;;;;;13.10;10.40;;;;;;;;;;85447;211;3031380;-37
2023/12/02 15:26:12;;;;;;;12.40;10.20;;;;;;;;;;85424;211;3028034;-37
2023/12/02 15:28:57;;;;;;;12.80;10.10;;;;;;;;;;85442;211;3027158;-38
2023/12/02 15:31:40;;;;;;;12.40;10.00;;;;;;;;;;85444;211;3030273;-38
2023/12/02 15:34:22;;;;;;;12.50;10.20;;;;;;;;;;85430;211;3032086;-38
2023/12/02 15:37:03;;;;;;;12.30;10.10;;;;;;;;;;85450;211;3028635;-38
2023/12/02 15:39:47;;;;;;;12.60;10.10;;;;;;;;;;85446;211;3027293;-37
2023/12/02 15:42:35;;;;;;;13.00;10.70;;;;;;;;;;85407;211;3030858;-38